sensor_id;sensor_type;location;lat;lon;timestamp;P1;durP1;ratioP1;P2;durP2;ratioP2
33716;SDS011;20046;50.746;7.072;2022-09-29T00:00:25;8.48;;;5.75;;
33716;SDS011;20046;50.746;7.072;2022-09-29T00:02:53;11.35;;;5.65;;
33716;SDS011;20046;50.746;7.072;2022-09-29T00:05:19;8.85;;;5.63;;
33716;SDS011;20046;50.746;7.072;2022-09-29T00:07:45;9.82;;;5.75;;
33716;SDS011;20046;50.746;7.072;2022-09-29T00:10:11;17.23;;;7.68;;
33716;SDS011;20046;50.746;7.072;2022-09-29T00:12:36;11.15;;;6.68;;
33716;SDS011;20046;50.746;7.072;2022-09-29T00:15:02;8.45;;;6.53;;
33716;SDS011;20046;50.746;7.072;2022-09-29T00:17:28;8.13;;;6.35;;
33716;SDS011;20046;50.746;7.072;2022-09-29T00:19:54;9.75;;;6.13;;
33716;SDS011;20046;50.746;7.072;2022-09-29T00:22:19;12.20;;;7.20;;
33716;SDS011;20046;50.746;7.072;2022-09-29T00:24:45;12.70;;;7.10;;
33716;SDS011;20046;50.746;7.072;2022-09-29T00:27:15;13.02;;;6.50;;
33716;SDS011;20046;50.746;7.072;2022-09-29T00:29:41;10.18;;;6.75;;
33716;SDS011;20046;50.746;7.072;2022-09-29T00:32:07;14.60;;;6.57;;
33716;SDS011;20046;50.746;7.072;2022-09-29T00:34:33;12.55;;;6.35;;
33716;SDS011;20046;50.746;7.072;2022-09-29T00:36:58;13.68;;;6.75;;
33716;SDS011;20046;50.746;7.072;2022-09-29T00:39:24;11.63;;;6.72;;
33716;SDS011;20046;50.746;7.072;2022-09-29T00:41:50;12.77;;;6.78;;
33716;SDS011;20046;50.746;7.072;2022-09-29T00:46:48;12.60;;;7.00;;
33716;SDS011;20046;50.746;7.072;2022-09-29T00:52:01;13.93;;;7.35;;
33716;SDS011;20046;50.746;7.072;2022-09-29T00:54:30;11.10;;;6.25;;
33716;SDS011;20046;50.746;7.072;2022-09-29T00:57:01;12.40;;;7.40;;
33716;SDS011;20046;50.746;7.072;2022-09-29T00:59:32;18.00;;;8.20;;
33716;SDS011;20046;50.746;7.072;2022-09-29T01:02:05;20.30;;;9.18;;
33716;SDS011;20046;50.746;7.072;2022-09-29T01:04:32;12.45;;;8.85;;
33716;SDS011;20046;50.746;7.072;2022-09-29T01:06:58;15.43;;;10.05;;
33716;SDS011;20046;50.746;7.072;2022-09-29T01:09:25;18.73;;;11.82;;
33716;SDS011;20046;50.746;7.072;2022-09-29T01:11:54;17.38;;;10.73;;
33716;SDS011;20046;50.746;7.072;2022-09-29T01:14:22;18.55;;;10.80;;
33716;SDS011;20046;50.746;7.072;2022-09-29T01:16:49;18.42;;;11.15;;
33716;SDS011;20046;50.746;7.072;2022-09-29T01:19:20;20.38;;;11.52;;
33716;SDS011;20046;50.746;7.072;2022-09-29T01:22:06;21.40;;;11.90;;
33716;SDS011;20046;50.746;7.072;2022-09-29T01:31:16;18.65;;;11.40;;
33716;SDS011;20046;50.746;7.072;2022-09-29T01:41:50;19.17;;;11.30;;
33716;SDS011;20046;50.746;7.072;2022-09-29T01:49:55;24.63;;;13.38;;
33716;SDS011;20046;50.746;7.072;2022-09-29T01:52:26;20.30;;;12.25;;
33716;SDS011;20046;50.746;7.072;2022-09-29T01:54:57;25.27;;;12.68;;
33716;SDS011;20046;50.746;7.072;2022-09-29T02:00:25;28.25;;;15.05;;
33716;SDS011;20046;50.746;7.072;2022-09-29T02:05:52;27.42;;;14.25;;
33716;SDS011;20046;50.746;7.072;2022-09-29T02:08:39;30.40;;;15.65;;
33716;SDS011;20046;50.746;7.072;2022-09-29T02:11:11;29.27;;;16.13;;
33716;SDS011;20046;50.746;7.072;2022-09-29T02:13:49;24.98;;;15.05;;
33716;SDS011;20046;50.746;7.072;2022-09-29T02:16:18;27.30;;;15.35;;
33716;SDS011;20046;50.746;7.072;2022-09-29T02:19:00;32.65;;;15.77;;
33716;SDS011;20046;50.746;7.072;2022-09-29T02:21:30;32.45;;;16.95;;
33716;SDS011;20046;50.746;7.072;2022-09-29T02:23:55;34.38;;;17.02;;
33716;SDS011;20046;50.746;7.072;2022-09-29T02:26:22;30.40;;;16.52;;
33716;SDS011;20046;50.746;7.072;2022-09-29T02:28:49;31.58;;;16.55;;
33716;SDS011;20046;50.746;7.072;2022-09-29T02:31:16;33.90;;;17.38;;
33716;SDS011;20046;50.746;7.072;2022-09-29T02:33:43;38.58;;;16.38;;
33716;SDS011;20046;50.746;7.072;2022-09-29T02:46:53;37.28;;;17.08;;
33716;SDS011;20046;50.746;7.072;2022-09-29T02:49:48;41.67;;;18.00;;
33716;SDS011;20046;50.746;7.072;2022-09-29T02:55:23;42.20;;;18.60;;
33716;SDS011;20046;50.746;7.072;2022-09-29T02:57:57;49.67;;;19.67;;
33716;SDS011;20046;50.746;7.072;2022-09-29T03:00:27;42.80;;;18.20;;
33716;SDS011;20046;50.746;7.072;2022-09-29T03:02:54;42.47;;;18.92;;
33716;SDS011;20046;50.746;7.072;2022-09-29T03:05:20;46.88;;;18.88;;
33716;SDS011;20046;50.746;7.072;2022-09-29T03:07:47;49.78;;;19.92;;
33716;SDS011;20046;50.746;7.072;2022-09-29T03:10:13;42.60;;;18.80;;
33716;SDS011;20046;50.746;7.072;2022-09-29T03:12:40;43.15;;;19.55;;
33716;SDS011;20046;50.746;7.072;2022-09-29T03:15:06;42.22;;;17.77;;
33716;SDS011;20046;50.746;7.072;2022-09-29T03:17:33;47.10;;;18.63;;
33716;SDS011;20046;50.746;7.072;2022-09-29T03:19:59;41.30;;;18.02;;
33716;SDS011;20046;50.746;7.072;2022-09-29T03:22:24;41.75;;;19.05;;
33716;SDS011;20046;50.746;7.072;2022-09-29T03:24:50;41.22;;;18.90;;
33716;SDS011;20046;50.746;7.072;2022-09-29T03:27:16;40.13;;;17.73;;
33716;SDS011;20046;50.746;7.072;2022-09-29T03:29:42;40.05;;;18.00;;
33716;SDS011;20046;50.746;7.072;2022-09-29T03:32:08;38.67;;;18.85;;
33716;SDS011;20046;50.746;7.072;2022-09-29T03:34:34;39.88;;;17.67;;
33716;SDS011;20046;50.746;7.072;2022-09-29T03:37:00;45.83;;;18.42;;
33716;SDS011;20046;50.746;7.072;2022-09-29T03:39:26;40.45;;;17.90;;
33716;SDS011;20046;50.746;7.072;2022-09-29T03:41:52;35.30;;;17.27;;
33716;SDS011;20046;50.746;7.072;2022-09-29T03:44:18;39.75;;;17.30;;
33716;SDS011;20046;50.746;7.072;2022-09-29T03:46:43;40.00;;;18.40;;
33716;SDS011;20046;50.746;7.072;2022-09-29T03:49:10;38.60;;;16.83;;
33716;SDS011;20046;50.746;7.072;2022-09-29T03:51:36;36.53;;;17.08;;
33716;SDS011;20046;50.746;7.072;2022-09-29T03:54:02;36.20;;;17.27;;
33716;SDS011;20046;50.746;7.072;2022-09-29T03:56:28;38.03;;;18.25;;
33716;SDS011;20046;50.746;7.072;2022-09-29T03:58:55;37.60;;;17.10;;
33716;SDS011;20046;50.746;7.072;2022-09-29T04:01:20;32.67;;;16.15;;
33716;SDS011;20046;50.746;7.072;2022-09-29T04:03:46;40.63;;;16.65;;
33716;SDS011;20046;50.746;7.072;2022-09-29T04:06:12;31.75;;;15.23;;
33716;SDS011;20046;50.746;7.072;2022-09-29T04:08:37;37.45;;;16.08;;
33716;SDS011;20046;50.746;7.072;2022-09-29T04:11:03;31.88;;;15.85;;
33716;SDS011;20046;50.746;7.072;2022-09-29T04:13:29;35.92;;;16.75;;
33716;SDS011;20046;50.746;7.072;2022-09-29T04:15:58;35.85;;;15.57;;
33716;SDS011;20046;50.746;7.072;2022-09-29T04:18:29;31.60;;;15.13;;
33716;SDS011;20046;50.746;7.072;2022-09-29T04:20:55;33.95;;;17.10;;
33716;SDS011;20046;50.746;7.072;2022-09-29T04:23:24;39.22;;;17.05;;
33716;SDS011;20046;50.746;7.072;2022-09-29T04:25:51;45.58;;;17.90;;
33716;SDS011;20046;50.746;7.072;2022-09-29T04:28:17;36.30;;;16.63;;
33716;SDS011;20046;50.746;7.072;2022-09-29T04:30:42;45.60;;;17.85;;
33716;SDS011;20046;50.746;7.072;2022-09-29T04:33:08;38.35;;;16.92;;
33716;SDS011;20046;50.746;7.072;2022-09-29T04:35:34;47.35;;;18.67;;
33716;SDS011;20046;50.746;7.072;2022-09-29T04:38:00;45.58;;;18.98;;
33716;SDS011;20046;50.746;7.072;2022-09-29T04:40:25;46.72;;;20.38;;
33716;SDS011;20046;50.746;7.072;2022-09-29T04:42:52;42.45;;;19.60;;
33716;SDS011;20046;50.746;7.072;2022-09-29T04:45:17;46.30;;;17.40;;
33716;SDS011;20046;50.746;7.072;2022-09-29T04:47:43;40.20;;;18.58;;
33716;SDS011;20046;50.746;7.072;2022-09-29T04:50:08;49.47;;;18.10;;
33716;SDS011;20046;50.746;7.072;2022-09-29T04:52:34;43.63;;;17.45;;
33716;SDS011;20046;50.746;7.072;2022-09-29T04:55:00;47.85;;;18.77;;
33716;SDS011;20046;50.746;7.072;2022-09-29T04:57:27;43.13;;;18.38;;
33716;SDS011;20046;50.746;7.072;2022-09-29T04:59:52;46.80;;;19.02;;
33716;SDS011;20046;50.746;7.072;2022-09-29T05:02:18;49.63;;;18.77;;
33716;SDS011;20046;50.746;7.072;2022-09-29T05:04:44;50.95;;;19.88;;
33716;SDS011;20046;50.746;7.072;2022-09-29T05:07:11;52.35;;;19.98;;
33716;SDS011;20046;50.746;7.072;2022-09-29T05:09:37;56.65;;;21.20;;
33716;SDS011;20046;50.746;7.072;2022-09-29T05:12:03;50.72;;;20.38;;
33716;SDS011;20046;50.746;7.072;2022-09-29T05:14:29;49.95;;;20.92;;
33716;SDS011;20046;50.746;7.072;2022-09-29T05:16:54;50.83;;;21.00;;
33716;SDS011;20046;50.746;7.072;2022-09-29T05:19:21;54.33;;;20.85;;
33716;SDS011;20046;50.746;7.072;2022-09-29T05:21:46;51.92;;;19.90;;
33716;SDS011;20046;50.746;7.072;2022-09-29T05:24:12;51.38;;;20.70;;
33716;SDS011;20046;50.746;7.072;2022-09-29T05:26:38;55.38;;;21.58;;
33716;SDS011;20046;50.746;7.072;2022-09-29T05:29:03;47.70;;;20.83;;
33716;SDS011;20046;50.746;7.072;2022-09-29T05:31:29;50.78;;;20.17;;
33716;SDS011;20046;50.746;7.072;2022-09-29T05:33:55;48.63;;;21.13;;
33716;SDS011;20046;50.746;7.072;2022-09-29T05:36:21;53.80;;;22.90;;
33716;SDS011;20046;50.746;7.072;2022-09-29T05:38:47;49.25;;;22.30;;
33716;SDS011;20046;50.746;7.072;2022-09-29T05:41:13;53.78;;;22.63;;
33716;SDS011;20046;50.746;7.072;2022-09-29T05:43:48;54.13;;;22.77;;
33716;SDS011;20046;50.746;7.072;2022-09-29T05:46:15;51.38;;;22.02;;
33716;SDS011;20046;50.746;7.072;2022-09-29T05:48:41;57.35;;;23.63;;
33716;SDS011;20046;50.746;7.072;2022-09-29T05:51:11;54.88;;;23.98;;
33716;SDS011;20046;50.746;7.072;2022-09-29T05:53:38;58.92;;;22.98;;
33716;SDS011;20046;50.746;7.072;2022-09-29T05:56:08;55.40;;;22.38;;
33716;SDS011;20046;50.746;7.072;2022-09-29T05:58:36;48.33;;;22.35;;
33716;SDS011;20046;50.746;7.072;2022-09-29T06:01:09;47.55;;;22.63;;
33716;SDS011;20046;50.746;7.072;2022-09-29T06:03:36;52.40;;;22.65;;
33716;SDS011;20046;50.746;7.072;2022-09-29T06:08:41;58.65;;;22.45;;
33716;SDS011;20046;50.746;7.072;2022-09-29T06:11:12;56.17;;;23.63;;
33716;SDS011;20046;50.746;7.072;2022-09-29T06:13:46;52.75;;;23.30;;
33716;SDS011;20046;50.746;7.072;2022-09-29T06:16:13;55.33;;;23.23;;
33716;SDS011;20046;50.746;7.072;2022-09-29T06:18:40;49.53;;;23.90;;
33716;SDS011;20046;50.746;7.072;2022-09-29T06:21:07;58.78;;;25.25;;
33716;SDS011;20046;50.746;7.072;2022-09-29T06:23:38;54.35;;;24.40;;
33716;SDS011;20046;50.746;7.072;2022-09-29T06:26:06;65.32;;;24.38;;
33716;SDS011;20046;50.746;7.072;2022-09-29T06:28:33;54.90;;;25.00;;
33716;SDS011;20046;50.746;7.072;2022-09-29T06:31:03;64.25;;;22.77;;
33716;SDS011;20046;50.746;7.072;2022-09-29T06:33:35;51.30;;;23.25;;
33716;SDS011;20046;50.746;7.072;2022-09-29T06:36:09;50.10;;;23.73;;
33716;SDS011;20046;50.746;7.072;2022-09-29T06:39:00;50.50;;;22.95;;
33716;SDS011;20046;50.746;7.072;2022-09-29T06:41:27;47.92;;;23.00;;
33716;SDS011;20046;50.746;7.072;2022-09-29T06:43:53;46.25;;;21.85;;
33716;SDS011;20046;50.746;7.072;2022-09-29T06:46:19;47.50;;;20.98;;
33716;SDS011;20046;50.746;7.072;2022-09-29T06:48:46;46.85;;;22.00;;
33716;SDS011;20046;50.746;7.072;2022-09-29T06:51:12;46.78;;;23.27;;
33716;SDS011;20046;50.746;7.072;2022-09-29T06:53:38;39.92;;;21.13;;
33716;SDS011;20046;50.746;7.072;2022-09-29T06:56:05;38.00;;;20.33;;
33716;SDS011;20046;50.746;7.072;2022-09-29T06:58:33;45.80;;;22.42;;
33716;SDS011;20046;50.746;7.072;2022-09-29T07:00:59;41.90;;;20.67;;
33716;SDS011;20046;50.746;7.072;2022-09-29T07:03:26;43.25;;;20.98;;
33716;SDS011;20046;50.746;7.072;2022-09-29T07:05:56;41.42;;;21.15;;
33716;SDS011;20046;50.746;7.072;2022-09-29T07:08:21;46.00;;;24.73;;
33716;SDS011;20046;50.746;7.072;2022-09-29T07:10:47;38.30;;;20.83;;
33716;SDS011;20046;50.746;7.072;2022-09-29T07:13:13;45.40;;;21.70;;
33716;SDS011;20046;50.746;7.072;2022-09-29T07:15:38;45.17;;;23.38;;
33716;SDS011;20046;50.746;7.072;2022-09-29T07:18:04;41.45;;;21.25;;
33716;SDS011;20046;50.746;7.072;2022-09-29T07:20:30;41.22;;;22.02;;
33716;SDS011;20046;50.746;7.072;2022-09-29T07:22:56;44.22;;;22.48;;
33716;SDS011;20046;50.746;7.072;2022-09-29T07:25:22;37.92;;;20.63;;
33716;SDS011;20046;50.746;7.072;2022-09-29T07:27:48;47.53;;;22.33;;
33716;SDS011;20046;50.746;7.072;2022-09-29T07:30:15;42.72;;;23.05;;
33716;SDS011;20046;50.746;7.072;2022-09-29T07:32:42;38.75;;;21.23;;
33716;SDS011;20046;50.746;7.072;2022-09-29T07:35:08;39.10;;;21.85;;
33716;SDS011;20046;50.746;7.072;2022-09-29T07:37:33;35.70;;;19.92;;
33716;SDS011;20046;50.746;7.072;2022-09-29T07:39:59;34.78;;;20.65;;
33716;SDS011;20046;50.746;7.072;2022-09-29T07:42:26;36.90;;;19.73;;
33716;SDS011;20046;50.746;7.072;2022-09-29T07:44:53;43.97;;;22.60;;
33716;SDS011;20046;50.746;7.072;2022-09-29T07:47:19;36.78;;;20.70;;
33716;SDS011;20046;50.746;7.072;2022-09-29T07:49:45;37.50;;;20.80;;
33716;SDS011;20046;50.746;7.072;2022-09-29T07:52:13;35.65;;;21.00;;
33716;SDS011;20046;50.746;7.072;2022-09-29T07:54:39;36.70;;;20.58;;
33716;SDS011;20046;50.746;7.072;2022-09-29T07:57:05;39.00;;;19.45;;
33716;SDS011;20046;50.746;7.072;2022-09-29T07:59:30;34.65;;;19.27;;
33716;SDS011;20046;50.746;7.072;2022-09-29T08:01:56;28.05;;;17.25;;
33716;SDS011;20046;50.746;7.072;2022-09-29T08:04:22;30.30;;;18.02;;
33716;SDS011;20046;50.746;7.072;2022-09-29T08:06:48;33.90;;;17.77;;
33716;SDS011;20046;50.746;7.072;2022-09-29T08:09:14;28.63;;;17.80;;
33716;SDS011;20046;50.746;7.072;2022-09-29T08:11:41;25.40;;;16.15;;
33716;SDS011;20046;50.746;7.072;2022-09-29T08:14:07;27.58;;;15.68;;
33716;SDS011;20046;50.746;7.072;2022-09-29T08:16:34;25.40;;;15.93;;
33716;SDS011;20046;50.746;7.072;2022-09-29T08:19:00;26.30;;;16.73;;
33716;SDS011;20046;50.746;7.072;2022-09-29T08:21:27;30.65;;;17.65;;
33716;SDS011;20046;50.746;7.072;2022-09-29T08:23:54;26.50;;;16.25;;
33716;SDS011;20046;50.746;7.072;2022-09-29T08:26:20;28.40;;;16.77;;
33716;SDS011;20046;50.746;7.072;2022-09-29T08:28:46;39.50;;;16.13;;
33716;SDS011;20046;50.746;7.072;2022-09-29T08:31:13;20.98;;;13.68;;
33716;SDS011;20046;50.746;7.072;2022-09-29T08:33:49;23.20;;;11.68;;
33716;SDS011;20046;50.746;7.072;2022-09-29T08:36:16;19.02;;;11.13;;
33716;SDS011;20046;50.746;7.072;2022-09-29T08:38:48;18.52;;;11.30;;
33716;SDS011;20046;50.746;7.072;2022-09-29T08:44:13;16.30;;;11.45;;
33716;SDS011;20046;50.746;7.072;2022-09-29T08:47:25;15.68;;;11.60;;
33716;SDS011;20046;50.746;7.072;2022-09-29T08:50:00;17.27;;;11.20;;
33716;SDS011;20046;50.746;7.072;2022-09-29T08:52:29;17.38;;;10.98;;
33716;SDS011;20046;50.746;7.072;2022-09-29T08:57:41;11.35;;;8.13;;
33716;SDS011;20046;50.746;7.072;2022-09-29T09:00:11;14.32;;;9.02;;
33716;SDS011;20046;50.746;7.072;2022-09-29T09:05:29;14.75;;;10.60;;
33716;SDS011;20046;50.746;7.072;2022-09-29T09:16:36;21.13;;;12.48;;
33716;SDS011;20046;50.746;7.072;2022-09-29T09:25:00;22.85;;;14.10;;
33716;SDS011;20046;50.746;7.072;2022-09-29T09:27:38;22.45;;;14.80;;
33716;SDS011;20046;50.746;7.072;2022-09-29T09:30:12;21.77;;;14.75;;
33716;SDS011;20046;50.746;7.072;2022-09-29T09:32:41;22.65;;;14.88;;
33716;SDS011;20046;50.746;7.072;2022-09-29T09:35:22;24.85;;;15.48;;
33716;SDS011;20046;50.746;7.072;2022-09-29T09:37:54;22.50;;;15.70;;
33716;SDS011;20046;50.746;7.072;2022-09-29T09:40:28;25.77;;;16.17;;
33716;SDS011;20046;50.746;7.072;2022-09-29T09:43:17;31.88;;;16.88;;
33716;SDS011;20046;50.746;7.072;2022-09-29T09:45:46;22.48;;;16.17;;
33716;SDS011;20046;50.746;7.072;2022-09-29T09:48:37;24.10;;;15.77;;
33716;SDS011;20046;50.746;7.072;2022-09-29T09:51:28;21.38;;;14.80;;
33716;SDS011;20046;50.746;7.072;2022-09-29T09:54:13;21.52;;;14.35;;
33716;SDS011;20046;50.746;7.072;2022-09-29T09:56:54;18.95;;;12.60;;
33716;SDS011;20046;50.746;7.072;2022-09-29T10:02:07;20.88;;;13.18;;
33716;SDS011;20046;50.746;7.072;2022-09-29T10:04:41;17.30;;;10.57;;
33716;SDS011;20046;50.746;7.072;2022-09-29T10:07:08;17.98;;;13.07;;
33716;SDS011;20046;50.746;7.072;2022-09-29T10:09:34;16.90;;;11.38;;
33716;SDS011;20046;50.746;7.072;2022-09-29T10:12:00;23.10;;;12.80;;
33716;SDS011;20046;50.746;7.072;2022-09-29T10:14:26;17.50;;;11.23;;
33716;SDS011;20046;50.746;7.072;2022-09-29T10:16:56;15.48;;;9.88;;
33716;SDS011;20046;50.746;7.072;2022-09-29T10:22:18;15.40;;;9.23;;
33716;SDS011;20046;50.746;7.072;2022-09-29T10:24:44;16.60;;;10.15;;
33716;SDS011;20046;50.746;7.072;2022-09-29T10:27:10;16.33;;;9.80;;
33716;SDS011;20046;50.746;7.072;2022-09-29T10:29:42;13.45;;;10.38;;
33716;SDS011;20046;50.746;7.072;2022-09-29T10:32:29;15.13;;;9.73;;
33716;SDS011;20046;50.746;7.072;2022-09-29T10:37:51;14.82;;;7.75;;
33716;SDS011;20046;50.746;7.072;2022-09-29T10:40:29;14.38;;;6.80;;
33716;SDS011;20046;50.746;7.072;2022-09-29T10:42:55;10.23;;;6.93;;
33716;SDS011;20046;50.746;7.072;2022-09-29T10:50:24;11.40;;;6.32;;
33716;SDS011;20046;50.746;7.072;2022-09-29T10:52:59;10.77;;;6.40;;
33716;SDS011;20046;50.746;7.072;2022-09-29T10:55:47;15.13;;;5.65;;
33716;SDS011;20046;50.746;7.072;2022-09-29T11:00:48;7.05;;;5.13;;
33716;SDS011;20046;50.746;7.072;2022-09-29T11:05:59;9.23;;;5.15;;
33716;SDS011;20046;50.746;7.072;2022-09-29T11:08:28;7.07;;;4.45;;
33716;SDS011;20046;50.746;7.072;2022-09-29T11:13:42;7.50;;;4.68;;
33716;SDS011;20046;50.746;7.072;2022-09-29T11:16:17;8.18;;;4.45;;
33716;SDS011;20046;50.746;7.072;2022-09-29T11:18:47;7.40;;;4.13;;
33716;SDS011;20046;50.746;7.072;2022-09-29T11:23:49;10.70;;;4.57;;
33716;SDS011;20046;50.746;7.072;2022-09-29T11:37:57;7.40;;;3.58;;
33716;SDS011;20046;50.746;7.072;2022-09-29T11:43:50;5.75;;;2.70;;
33716;SDS011;20046;50.746;7.072;2022-09-29T11:57:31;8.63;;;3.00;;
33716;SDS011;20046;50.746;7.072;2022-09-29T12:00:11;6.35;;;2.92;;
33716;SDS011;20046;50.746;7.072;2022-09-29T12:05:48;5.55;;;2.58;;
33716;SDS011;20046;50.746;7.072;2022-09-29T12:11:12;9.02;;;3.20;;
33716;SDS011;20046;50.746;7.072;2022-09-29T12:14:01;9.75;;;3.10;;
33716;SDS011;20046;50.746;7.072;2022-09-29T12:17:00;4.10;;;2.60;;
33716;SDS011;20046;50.746;7.072;2022-09-29T12:19:30;5.05;;;1.83;;
33716;SDS011;20046;50.746;7.072;2022-09-29T12:22:01;4.20;;;2.10;;
33716;SDS011;20046;50.746;7.072;2022-09-29T12:24:35;2.40;;;1.73;;
33716;SDS011;20046;50.746;7.072;2022-09-29T12:27:04;3.08;;;2.05;;
33716;SDS011;20046;50.746;7.072;2022-09-29T12:29:40;6.13;;;2.10;;
33716;SDS011;20046;50.746;7.072;2022-09-29T12:32:14;5.88;;;2.47;;
33716;SDS011;20046;50.746;7.072;2022-09-29T12:34:55;5.28;;;2.60;;
33716;SDS011;20046;50.746;7.072;2022-09-29T12:48:25;6.65;;;2.30;;
33716;SDS011;20046;50.746;7.072;2022-09-29T12:51:00;5.20;;;2.15;;
33716;SDS011;20046;50.746;7.072;2022-09-29T12:56:00;3.92;;;2.08;;
33716;SDS011;20046;50.746;7.072;2022-09-29T13:01:19;5.10;;;1.98;;
33716;SDS011;20046;50.746;7.072;2022-09-29T13:06:13;2.83;;;1.80;;
33716;SDS011;20046;50.746;7.072;2022-09-29T13:32:38;8.65;;;3.40;;
33716;SDS011;20046;50.746;7.072;2022-09-29T13:35:10;9.75;;;3.10;;
33716;SDS011;20046;50.746;7.072;2022-09-29T13:37:53;7.13;;;2.55;;
33716;SDS011;20046;50.746;7.072;2022-09-29T13:40:24;10.25;;;2.80;;
33716;SDS011;20046;50.746;7.072;2022-09-29T13:42:54;5.70;;;2.20;;
33716;SDS011;20046;50.746;7.072;2022-09-29T13:47:55;5.93;;;1.85;;
33716;SDS011;20046;50.746;7.072;2022-09-29T13:58:26;5.20;;;2.08;;
33716;SDS011;20046;50.746;7.072;2022-09-29T14:00:58;6.53;;;1.85;;
33716;SDS011;20046;50.746;7.072;2022-09-29T14:03:27;6.82;;;1.85;;
33716;SDS011;20046;50.746;7.072;2022-09-29T14:06:19;5.82;;;2.22;;
33716;SDS011;20046;50.746;7.072;2022-09-29T14:11:39;3.05;;;1.98;;
33716;SDS011;20046;50.746;7.072;2022-09-29T14:22:01;5.13;;;1.80;;
33716;SDS011;20046;50.746;7.072;2022-09-29T14:29:42;3.78;;;1.40;;
33716;SDS011;20046;50.746;7.072;2022-09-29T14:32:17;2.83;;;1.88;;
33716;SDS011;20046;50.746;7.072;2022-09-29T14:34:46;2.20;;;1.50;;
33716;SDS011;20046;50.746;7.072;2022-09-29T14:37:16;5.90;;;1.55;;
33716;SDS011;20046;50.746;7.072;2022-09-29T14:39:47;1.55;;;1.33;;
33716;SDS011;20046;50.746;7.072;2022-09-29T14:42:32;3.05;;;1.30;;
33716;SDS011;20046;50.746;7.072;2022-09-29T14:44:59;4.47;;;2.03;;
33716;SDS011;20046;50.746;7.072;2022-09-29T14:47:47;4.82;;;1.60;;
33716;SDS011;20046;50.746;7.072;2022-09-29T14:58:55;3.67;;;1.48;;
33716;SDS011;20046;50.746;7.072;2022-09-29T15:01:34;2.92;;;1.40;;
33716;SDS011;20046;50.746;7.072;2022-09-29T15:04:18;4.53;;;1.67;;
33716;SDS011;20046;50.746;7.072;2022-09-29T15:06:46;4.60;;;1.50;;
33716;SDS011;20046;50.746;7.072;2022-09-29T15:09:17;4.82;;;1.60;;
33716;SDS011;20046;50.746;7.072;2022-09-29T15:11:52;6.95;;;1.98;;
33716;SDS011;20046;50.746;7.072;2022-09-29T15:27:55;8.10;;;2.10;;
33716;SDS011;20046;50.746;7.072;2022-09-29T15:30:43;12.38;;;2.50;;
33716;SDS011;20046;50.746;7.072;2022-09-29T15:33:17;6.20;;;2.88;;
33716;SDS011;20046;50.746;7.072;2022-09-29T15:38:30;4.55;;;2.60;;
33716;SDS011;20046;50.746;7.072;2022-09-29T15:41:02;7.25;;;2.30;;
33716;SDS011;20046;50.746;7.072;2022-09-29T15:46:12;7.40;;;3.00;;
33716;SDS011;20046;50.746;7.072;2022-09-29T15:48:41;4.72;;;2.50;;
33716;SDS011;20046;50.746;7.072;2022-09-29T15:51:30;4.85;;;1.90;;
33716;SDS011;20046;50.746;7.072;2022-09-29T15:53:56;5.93;;;1.90;;
33716;SDS011;20046;50.746;7.072;2022-09-29T15:56:24;5.85;;;2.30;;
33716;SDS011;20046;50.746;7.072;2022-09-29T15:58:50;6.53;;;2.13;;
33716;SDS011;20046;50.746;7.072;2022-09-29T16:01:18;3.90;;;1.75;;
33716;SDS011;20046;50.746;7.072;2022-09-29T16:04:17;2.40;;;1.40;;
33716;SDS011;20046;50.746;7.072;2022-09-29T16:06:37;2.92;;;1.85;;
33716;SDS011;20046;50.746;7.072;2022-09-29T16:09:15;7.18;;;1.60;;
33716;SDS011;20046;50.746;7.072;2022-09-29T16:11:43;5.43;;;1.70;;
33716;SDS011;20046;50.746;7.072;2022-09-29T16:14:22;7.45;;;2.80;;
33716;SDS011;20046;50.746;7.072;2022-09-29T16:16:52;6.25;;;2.22;;
33716;SDS011;20046;50.746;7.072;2022-09-29T16:21:51;4.75;;;1.75;;
33716;SDS011;20046;50.746;7.072;2022-09-29T16:24:19;8.45;;;1.95;;
33716;SDS011;20046;50.746;7.072;2022-09-29T16:26:48;4.18;;;1.63;;
33716;SDS011;20046;50.746;7.072;2022-09-29T16:29:29;5.03;;;2.20;;
33716;SDS011;20046;50.746;7.072;2022-09-29T16:32:01;3.20;;;1.80;;
33716;SDS011;20046;50.746;7.072;2022-09-29T16:35:16;5.00;;;1.70;;
33716;SDS011;20046;50.746;7.072;2022-09-29T16:38:14;5.25;;;1.95;;
33716;SDS011;20046;50.746;7.072;2022-09-29T16:40:51;6.35;;;2.58;;
33716;SDS011;20046;50.746;7.072;2022-09-29T16:43:25;4.80;;;2.72;;
33716;SDS011;20046;50.746;7.072;2022-09-29T16:45:57;5.85;;;2.75;;
33716;SDS011;20046;50.746;7.072;2022-09-29T16:48:25;5.32;;;2.80;;
33716;SDS011;20046;50.746;7.072;2022-09-29T16:50:54;5.68;;;2.30;;
33716;SDS011;20046;50.746;7.072;2022-09-29T16:53:24;7.65;;;2.97;;
33716;SDS011;20046;50.746;7.072;2022-09-29T16:56:08;7.05;;;3.00;;
33716;SDS011;20046;50.746;7.072;2022-09-29T16:58:42;8.00;;;2.67;;
33716;SDS011;20046;50.746;7.072;2022-09-29T17:01:09;7.82;;;4.07;;
33716;SDS011;20046;50.746;7.072;2022-09-29T17:03:37;9.18;;;3.67;;
33716;SDS011;20046;50.746;7.072;2022-09-29T17:06:03;8.05;;;3.88;;
33716;SDS011;20046;50.746;7.072;2022-09-29T17:08:30;15.23;;;6.70;;
33716;SDS011;20046;50.746;7.072;2022-09-29T17:10:59;8.80;;;4.93;;
33716;SDS011;20046;50.746;7.072;2022-09-29T17:13:26;12.27;;;4.93;;
33716;SDS011;20046;50.746;7.072;2022-09-29T17:15:55;13.38;;;6.93;;
33716;SDS011;20046;50.746;7.072;2022-09-29T17:18:21;12.73;;;7.35;;
33716;SDS011;20046;50.746;7.072;2022-09-29T17:20:49;8.38;;;4.75;;
33716;SDS011;20046;50.746;7.072;2022-09-29T17:23:14;8.98;;;4.68;;
33716;SDS011;20046;50.746;7.072;2022-09-29T17:25:44;3.95;;;3.03;;
33716;SDS011;20046;50.746;7.072;2022-09-29T17:30:42;7.15;;;3.50;;
33716;SDS011;20046;50.746;7.072;2022-09-29T17:33:10;9.40;;;3.80;;
33716;SDS011;20046;50.746;7.072;2022-09-29T17:35:39;5.78;;;3.67;;
33716;SDS011;20046;50.746;7.072;2022-09-29T17:38:07;5.97;;;3.00;;
33716;SDS011;20046;50.746;7.072;2022-09-29T17:43:13;9.18;;;3.28;;
33716;SDS011;20046;50.746;7.072;2022-09-29T17:45:40;6.47;;;3.70;;
33716;SDS011;20046;50.746;7.072;2022-09-29T17:48:08;9.23;;;3.45;;
33716;SDS011;20046;50.746;7.072;2022-09-29T17:50:50;8.98;;;3.70;;
33716;SDS011;20046;50.746;7.072;2022-09-29T17:53:19;7.85;;;3.42;;
33716;SDS011;20046;50.746;7.072;2022-09-29T17:55:45;5.20;;;2.85;;
33716;SDS011;20046;50.746;7.072;2022-09-29T17:58:16;7.35;;;3.55;;
33716;SDS011;20046;50.746;7.072;2022-09-29T18:00:44;8.40;;;3.97;;
33716;SDS011;20046;50.746;7.072;2022-09-29T18:03:13;7.80;;;3.80;;
33716;SDS011;20046;50.746;7.072;2022-09-29T18:05:41;9.63;;;4.85;;
33716;SDS011;20046;50.746;7.072;2022-09-29T18:08:17;14.23;;;4.32;;
33716;SDS011;20046;50.746;7.072;2022-09-29T18:10:46;6.93;;;3.85;;
33716;SDS011;20046;50.746;7.072;2022-09-29T18:13:21;10.65;;;4.35;;
33716;SDS011;20046;50.746;7.072;2022-09-29T18:15:47;10.93;;;4.05;;
33716;SDS011;20046;50.746;7.072;2022-09-29T18:18:14;74.32;;;39.13;;
33716;SDS011;20046;50.746;7.072;2022-09-29T18:20:42;17.20;;;8.80;;
33716;SDS011;20046;50.746;7.072;2022-09-29T18:23:11;13.50;;;5.20;;
33716;SDS011;20046;50.746;7.072;2022-09-29T18:25:40;15.43;;;5.32;;
33716;SDS011;20046;50.746;7.072;2022-09-29T18:28:10;15.52;;;4.95;;
33716;SDS011;20046;50.746;7.072;2022-09-29T18:30:37;12.68;;;5.25;;
33716;SDS011;20046;50.746;7.072;2022-09-29T18:33:15;7.65;;;4.40;;
33716;SDS011;20046;50.746;7.072;2022-09-29T18:35:43;17.75;;;9.98;;
33716;SDS011;20046;50.746;7.072;2022-09-29T18:38:11;25.27;;;12.95;;